createdAt,value
2023-04-12T00:01:08.576Z,3.60
2023-04-12T00:06:10.473Z,3.75
2023-04-12T00:11:12.633Z,3.38
2023-04-12T00:16:15.870Z,3.21
2023-04-12T00:21:19.563Z,3.43
2023-04-12T00:26:21.798Z,3.36
2023-04-12T00:31:24.514Z,3.32
2023-04-12T00:36:27.128Z,3.16
2023-04-12T00:41:28.778Z,3.11
2023-04-12T00:46:32.401Z,2.96
2023-04-12T00:51:34.530Z,3.01
2023-04-12T00:56:37.824Z,2.88
2023-04-12T01:01:41.364Z,2.76
2023-04-12T01:07:27.852Z,2.66
2023-04-12T01:12:38.045Z,2.70
2023-04-12T01:17:58.153Z,3.06
2023-04-12T01:23:28.459Z,2.66
2023-04-12T01:28:34.324Z,2.61
2023-04-12T01:33:40.820Z,2.38
2023-04-12T01:38:43.749Z,2.44
2023-04-12T01:43:48.167Z,2.23
2023-04-12T01:48:52.641Z,2.11
2023-04-12T01:54:00.455Z,2.11
2023-04-12T01:59:04.217Z,2.23
2023-04-12T02:04:07.864Z,2.63
2023-04-12T02:09:10.308Z,2.32
2023-04-12T02:14:12.108Z,2.00
2023-04-12T02:19:14.126Z,1.84
2023-04-12T02:24:17.483Z,1.71
2023-04-12T02:29:19.648Z,2.14
2023-04-12T02:34:23.080Z,2.14
2023-04-12T02:39:32.532Z,2.12
2023-04-12T02:44:35.120Z,1.90
2023-04-12T02:49:45.941Z,1.72
2023-04-12T02:54:51.624Z,1.50
2023-04-12T02:59:54.426Z,1.58
2023-04-12T03:04:59.786Z,1.37
2023-04-12T03:10:13.909Z,1.36
2023-04-12T03:15:24.066Z,1.29
2023-04-12T03:20:28.405Z,1.20
2023-04-12T03:25:48.294Z,1.60
2023-04-12T03:31:10.717Z,1.42
2023-04-12T03:36:18.062Z,1.19
2023-04-12T03:41:25.584Z,1.13
2023-04-12T03:46:27.458Z,1.11
2023-04-12T03:51:33.867Z,1.14
2023-04-12T03:56:38.760Z,1.55
2023-04-12T04:01:46.298Z,1.44
2023-04-12T04:06:48.786Z,1.38
2023-04-12T04:11:51.714Z,1.63
2023-04-12T04:16:55.610Z,1.48
2023-04-12T04:21:57.997Z,1.20
2023-04-12T04:27:01.347Z,1.17
2023-04-12T04:32:03.364Z,1.51
2023-04-12T04:37:05.284Z,1.48
2023-04-12T04:42:07.152Z,1.39
2023-04-12T04:47:22.312Z,1.24
2023-04-12T04:52:24.465Z,1.30
2023-04-12T04:57:28.767Z,1.52
2023-04-12T05:02:32.006Z,1.41
2023-04-12T05:07:36.289Z,1.61
2023-04-12T05:12:38.094Z,1.73
2023-04-12T05:17:39.881Z,1.55
2023-04-12T05:22:41.638Z,1.69
2023-04-12T05:27:44.935Z,1.77
2023-04-12T05:32:50.476Z,1.87
2023-04-12T05:37:53.648Z,2.37
2023-04-12T05:42:56.014Z,2.55
2023-04-12T05:47:58.595Z,2.87
2023-04-12T05:53:01.960Z,2.98
2023-04-12T05:58:06.614Z,2.86
2023-04-12T06:03:10.466Z,3.77
2023-04-12T06:08:14.876Z,4.54
2023-04-12T06:13:17.206Z,4.84
2023-04-12T06:18:18.894Z,5.78
2023-04-12T06:23:21.112Z,5.87
2023-04-12T06:28:24.623Z,6.21
2023-04-12T06:33:27.812Z,6.05
2023-04-12T06:38:30.055Z,6.70
2023-04-12T06:43:31.765Z,6.61
2023-04-12T06:48:33.583Z,6.31
2023-04-12T06:53:35.987Z,6.35
2023-04-12T06:58:37.750Z,6.83
2023-04-12T07:03:39.812Z,6.81
2023-04-12T07:08:41.623Z,6.96
2023-04-12T07:13:45.170Z,7.43
2023-04-12T07:18:47.196Z,7.24
2023-04-12T07:23:51.290Z,7.66
2023-04-12T07:28:53.176Z,8.07
2023-04-12T07:33:54.884Z,7.97
2023-04-12T07:38:57.084Z,8.44
2023-04-12T07:43:58.903Z,8.67
2023-04-12T07:49:00.560Z,8.82
2023-04-12T07:54:02.817Z,9.33
2023-04-12T07:59:04.642Z,9.61
2023-04-12T08:04:07.185Z,9.92
2023-04-12T08:09:08.933Z,10.38
2023-04-12T08:14:12.165Z,10.93
2023-04-12T08:19:14.456Z,11.60
2023-04-12T08:24:16.290Z,12.11
2023-04-12T08:29:18.336Z,12.32
2023-04-12T08:34:22.381Z,12.43
2023-04-12T08:39:24.307Z,12.73
2023-04-12T08:44:36.601Z,13.00
2023-04-12T08:49:38.572Z,13.03
2023-04-12T08:54:40.185Z,13.31
2023-04-12T08:59:43.661Z,12.98
2023-04-12T09:04:49.942Z,13.43
2023-04-12T09:09:51.703Z,13.56
2023-04-12T09:15:12.659Z,13.99
2023-04-12T09:20:17.744Z,13.72
2023-04-12T09:25:36.267Z,14.16
2023-04-12T09:30:42.226Z,14.83
2023-04-12T09:35:44.048Z,14.85
2023-04-12T09:40:46.067Z,15.05
2023-04-12T09:45:48.698Z,14.76
2023-04-12T09:51:00.173Z,14.80
2023-04-12T09:56:08.403Z,14.51
2023-04-12T10:01:11.118Z,13.95
2023-04-12T10:06:13.161Z,13.81
2023-04-12T10:11:14.880Z,14.02
2023-04-12T10:16:17.088Z,14.68
2023-04-12T10:21:18.995Z,14.85
2023-04-12T10:26:21.013Z,14.82
2023-04-12T10:31:32.432Z,15.10
2023-04-12T10:36:53.541Z,14.65
2023-04-12T10:42:27.169Z,15.01
2023-04-12T10:47:55.832Z,15.11
2023-04-12T10:53:13.001Z,15.50
2023-04-12T10:58:49.799Z,15.39
2023-04-12T11:04:16.863Z,15.34
2023-04-12T11:09:45.165Z,15.84
2023-04-12T11:14:52.304Z,16.36
2023-04-12T11:20:01.452Z,15.98
2023-04-12T11:25:03.423Z,15.19
2023-04-12T11:30:05.853Z,14.99
2023-04-12T11:35:10.626Z,15.09
2023-04-12T11:40:14.557Z,14.79
2023-04-12T11:45:20.040Z,15.35
2023-04-12T11:50:32.626Z,15.62
2023-04-12T11:55:34.322Z,15.71
2023-04-12T12:00:36.376Z,16.05
2023-04-12T12:05:41.026Z,15.94
2023-04-12T12:10:59.900Z,15.47
2023-04-12T12:16:08.313Z,15.63
2023-04-12T12:21:13.313Z,15.49
2023-04-12T12:26:27.158Z,15.53
2023-04-12T12:31:29.138Z,16.19
2023-04-12T12:36:34.536Z,16.79
2023-04-12T12:41:37.196Z,15.81
2023-04-12T12:51:43.526Z,15.10
2023-04-12T12:56:46.169Z,15.23
2023-04-12T13:01:47.874Z,15.18
2023-04-12T13:06:49.663Z,15.14
2023-04-12T13:11:51.595Z,15.17
2023-04-12T13:16:54.127Z,15.13
2023-04-12T13:21:56.093Z,15.08
2023-04-12T13:26:58.351Z,14.84
2023-04-12T13:32:00.184Z,14.79
2023-04-12T13:37:02.002Z,14.92
2023-04-12T13:42:03.949Z,14.84
2023-04-12T13:47:05.716Z,14.61
2023-04-12T13:52:07.808Z,14.38
2023-04-12T13:57:10.324Z,14.46
2023-04-12T14:02:12.182Z,14.47
2023-04-12T14:07:13.977Z,14.34
2023-04-12T14:12:16.050Z,14.12
2023-04-12T14:17:17.946Z,14.10
2023-04-12T14:22:19.853Z,14.18
2023-04-12T14:27:21.688Z,13.62
2023-04-12T14:32:23.640Z,13.35
2023-04-12T14:37:25.474Z,13.16
2023-04-12T14:42:27.277Z,13.00
2023-04-12T14:47:28.956Z,12.72
2023-04-12T14:52:30.987Z,12.54
2023-04-12T14:57:34.949Z,12.18
2023-04-12T15:02:36.872Z,11.82
2023-04-12T15:07:38.963Z,11.72
2023-04-12T15:12:40.916Z,11.62
2023-04-12T15:17:42.968Z,11.53
2023-04-12T15:22:44.781Z,11.52
2023-04-12T15:27:46.586Z,11.34
2023-04-12T15:32:48.981Z,11.21
2023-04-12T15:37:50.962Z,11.30
2023-04-12T15:42:52.782Z,11.37
2023-04-12T15:47:59.476Z,11.37
2023-04-12T15:53:01.564Z,11.32
2023-04-12T15:58:03.386Z,11.42
2023-04-12T16:03:07.712Z,11.53
2023-04-12T16:08:10.992Z,11.44
2023-04-12T16:13:16.262Z,11.28
2023-04-12T16:18:18.115Z,11.17
2023-04-12T16:23:19.933Z,11.06
2023-04-12T16:28:22.708Z,11.17
2023-04-12T16:33:24.980Z,11.23
2023-04-12T16:38:26.886Z,11.31
2023-04-12T16:43:28.707Z,11.39
2023-04-12T16:48:31.080Z,11.26
2023-04-12T16:53:33.038Z,11.32
2023-04-12T16:58:34.825Z,11.22
2023-04-12T17:03:36.844Z,11.13
2023-04-12T17:08:38.726Z,11.29
2023-04-12T17:13:40.800Z,11.36
2023-04-12T17:18:43.601Z,11.19
2023-04-12T17:23:45.451Z,11.18
2023-04-12T17:28:47.287Z,11.30
2023-04-12T17:33:48.997Z,11.08
2023-04-12T17:38:50.706Z,11.11
2023-04-12T17:43:52.466Z,11.27
2023-04-12T17:48:54.196Z,11.28
2023-04-12T17:53:58.303Z,11.16
2023-04-12T17:59:02.131Z,11.16
2023-04-12T18:04:05.692Z,11.08
2023-04-12T18:09:10.909Z,11.14
2023-04-12T18:14:12.984Z,11.06
2023-04-12T18:19:16.835Z,11.21
2023-04-12T18:24:18.765Z,11.06
2023-04-12T18:29:20.977Z,11.17
2023-04-12T18:34:23.119Z,11.17
2023-04-12T18:39:24.984Z,10.86
2023-04-12T18:44:27.713Z,10.64
2023-04-12T18:49:30.430Z,10.81
2023-04-12T18:54:32.525Z,10.73
2023-04-12T18:59:34.366Z,10.86
2023-04-12T19:04:37.071Z,10.60
2023-04-12T19:09:38.893Z,10.54
2023-04-12T19:14:40.945Z,10.53
2023-04-12T19:19:43.661Z,10.46
2023-04-12T19:24:48.082Z,10.17
2023-04-12T19:29:51.746Z,10.01
2023-04-12T19:34:54.171Z,10.22
2023-04-12T19:39:56.285Z,10.42
2023-04-12T19:44:58.464Z,10.17
2023-04-12T19:50:01.063Z,10.10
2023-04-12T19:55:02.951Z,10.36
2023-04-12T20:00:12.801Z,10.44
2023-04-12T20:05:16.100Z,10.26
2023-04-12T20:10:18.028Z,10.19
2023-04-12T20:15:19.706Z,10.24
2023-04-12T20:20:21.560Z,10.04
2023-04-12T20:25:23.220Z,9.81
2023-04-12T20:30:26.280Z,9.99
2023-04-12T20:35:28.148Z,10.06
2023-04-12T20:40:30.367Z,10.03
2023-04-12T20:45:32.703Z,10.17
2023-04-12T20:50:34.450Z,10.02
2023-04-12T20:55:36.180Z,10.10
2023-04-12T21:00:38.759Z,10.19
2023-04-12T21:05:40.583Z,10.28
2023-04-12T21:10:42.844Z,10.56
2023-04-12T21:15:44.980Z,10.61
2023-04-12T21:20:50.445Z,10.76
2023-04-12T21:25:52.155Z,10.82
2023-04-12T21:30:55.220Z,10.73
2023-04-12T21:35:57.078Z,10.67
2023-04-12T21:41:05.646Z,10.80
2023-04-12T21:46:08.150Z,10.81
2023-04-12T21:51:10.029Z,10.90
2023-04-12T21:56:11.666Z,10.70
2023-04-12T22:01:14.155Z,10.82
2023-04-12T22:06:16.889Z,10.73
2023-04-12T22:11:18.577Z,10.60
2023-04-12T22:16:22.070Z,10.44
2023-04-12T22:21:23.858Z,10.49
2023-04-12T22:26:25.473Z,10.48
2023-04-12T22:31:27.562Z,10.56
2023-04-12T22:36:29.689Z,10.63
2023-04-12T22:41:33.138Z,10.60
2023-04-12T22:46:38.709Z,10.69
2023-04-12T22:51:40.445Z,10.86
2023-04-12T22:56:45.220Z,10.99
2023-04-12T23:01:47.430Z,11.09
2023-04-12T23:06:55.125Z,11.00
2023-04-12T23:11:56.812Z,11.05
2023-04-12T23:16:58.410Z,10.92
2023-04-12T23:22:00.095Z,10.91
2023-04-12T23:27:02.997Z,10.97
2023-04-12T23:32:04.881Z,10.77
2023-04-12T23:42:08.780Z,11.10
2023-04-12T23:47:10.483Z,10.94
2023-04-12T23:52:12.133Z,11.18
2023-04-12T23:57:14.945Z,10.89
